createdAt,value
2022-12-23T00:00:25.199Z,9.24
2022-12-23T00:02:51.857Z,9.26
2022-12-23T00:05:18.526Z,9.26
2022-12-23T00:07:45.002Z,9.26
2022-12-23T00:10:12.165Z,9.26
2022-12-23T00:12:57.216Z,9.25
2022-12-23T00:15:23.604Z,9.26
2022-12-23T00:17:50.044Z,9.24
2022-12-23T00:20:16.476Z,9.24
2022-12-23T00:23:01.689Z,9.24
2022-12-23T00:25:46.101Z,9.21
2022-12-23T00:28:18.941Z,9.20
2022-12-23T00:30:58.973Z,9.18
2022-12-23T00:33:31.786Z,9.18
2022-12-23T00:35:58.436Z,9.18
2022-12-23T00:38:44.158Z,9.17
2022-12-23T00:41:34.003Z,9.17
2022-12-23T00:44:01.499Z,9.14
2022-12-23T00:46:28.432Z,9.13
2022-12-23T00:49:13.665Z,9.12
2022-12-23T00:51:40.314Z,9.12
2022-12-23T00:54:07.270Z,9.12
2022-12-23T00:56:34.185Z,9.10
2022-12-23T00:59:00.810Z,9.09
2022-12-23T01:01:46.086Z,9.09
2022-12-23T01:04:32.937Z,9.08
2022-12-23T01:06:59.651Z,9.08
2022-12-23T01:09:26.819Z,9.06
2022-12-23T01:11:53.363Z,9.04
2022-12-23T01:14:20.275Z,9.03
2022-12-23T01:16:46.802Z,9.02
2022-12-23T01:19:13.692Z,9.02
2022-12-23T01:21:40.395Z,9.01
2022-12-23T01:24:07.795Z,9.02
2022-12-23T01:26:34.353Z,9.01
2022-12-23T01:29:01.530Z,9.01
2022-12-23T01:31:29.093Z,9.02
2022-12-23T01:33:56.103Z,9.00
2022-12-23T01:36:23.621Z,9.01
2022-12-23T01:38:50.547Z,9.01
2022-12-23T01:41:47.948Z,9.01
2022-12-23T01:44:51.689Z,9.00
2022-12-23T01:47:43.832Z,9.00
2022-12-23T01:50:25.176Z,8.99
2022-12-23T01:53:08.725Z,8.99
2022-12-23T01:55:44.636Z,8.98
2022-12-23T01:58:20.474Z,8.96
2022-12-23T02:01:05.629Z,8.96
2022-12-23T02:03:44.781Z,8.95
2022-12-23T02:06:38.201Z,8.94
2022-12-23T02:09:31.408Z,8.94
2022-12-23T02:12:21.378Z,8.93
2022-12-23T02:15:26.350Z,8.92
2022-12-23T02:18:04.167Z,8.92
2022-12-23T02:20:48.737Z,8.92
2022-12-23T02:23:18.153Z,8.90
2022-12-23T02:26:38.441Z,8.88
2022-12-23T02:29:38.482Z,8.87
2022-12-23T02:32:14.311Z,8.85
2022-12-23T02:34:55.954Z,8.84
2022-12-23T02:37:49.584Z,8.81
2022-12-23T02:40:38.225Z,8.78
2022-12-23T02:43:15.556Z,8.77
2022-12-23T02:45:49.450Z,8.75
2022-12-23T02:48:40.740Z,8.74
2022-12-23T02:51:13.105Z,8.72
2022-12-23T02:54:08.522Z,8.69
2022-12-23T02:56:38.130Z,8.65
2022-12-23T02:59:18.521Z,8.60
2022-12-23T03:01:46.041Z,8.56
2022-12-23T03:04:12.556Z,8.54
2022-12-23T03:06:44.401Z,8.52
2022-12-23T03:09:17.276Z,8.49
2022-12-23T03:11:55.619Z,8.45
2022-12-23T03:15:08.282Z,8.42
2022-12-23T03:17:49.827Z,8.37
2022-12-23T03:20:29.190Z,8.31
2022-12-23T03:23:11.209Z,8.26
2022-12-23T03:25:51.174Z,8.23
2022-12-23T03:28:26.887Z,8.18
2022-12-23T03:30:57.490Z,8.15
2022-12-23T03:33:32.971Z,8.17
2022-12-23T03:36:06.479Z,8.22
2022-12-23T03:38:36.138Z,8.24
2022-12-23T03:41:09.412Z,8.26
2022-12-23T03:43:48.379Z,8.27
2022-12-23T03:46:23.513Z,8.27
2022-12-23T03:48:58.627Z,8.29
2022-12-23T03:51:36.359Z,8.31
2022-12-23T03:54:13.038Z,8.32
2022-12-23T03:56:46.132Z,8.33
2022-12-23T03:59:25.291Z,8.34
2022-12-23T04:02:09.804Z,8.32
2022-12-23T04:04:42.234Z,8.32
2022-12-23T04:07:19.113Z,8.32
2022-12-23T04:09:46.593Z,8.32
2022-12-23T04:12:14.516Z,8.33
2022-12-23T04:14:49.186Z,8.34
2022-12-23T04:17:16.680Z,8.34
2022-12-23T04:19:47.445Z,8.35
2022-12-23T04:22:15.639Z,8.35
2022-12-23T04:24:42.849Z,8.35
2022-12-23T04:27:13.028Z,8.37
2022-12-23T04:29:39.459Z,8.38
2022-12-23T04:32:09.134Z,8.38
2022-12-23T04:34:35.887Z,8.38
2022-12-23T04:37:02.300Z,8.37
2022-12-23T04:39:28.777Z,8.39
2022-12-23T04:41:55.278Z,8.39
2022-12-23T04:44:21.772Z,8.40
2022-12-23T04:46:48.155Z,8.39
2022-12-23T04:49:14.629Z,8.40
2022-12-23T04:51:41.005Z,8.39
2022-12-23T04:54:07.396Z,8.41
2022-12-23T04:56:33.770Z,8.42
2022-12-23T04:59:02.247Z,8.43
2022-12-23T05:01:29.262Z,8.43
2022-12-23T05:03:55.735Z,8.42
2022-12-23T05:06:22.121Z,8.42
2022-12-23T05:08:48.538Z,8.41
2022-12-23T05:11:15.004Z,8.43
2022-12-23T05:13:41.783Z,8.44
2022-12-23T05:16:08.387Z,8.44
2022-12-23T05:18:34.826Z,8.43
2022-12-23T05:21:01.274Z,8.44
2022-12-23T05:23:27.744Z,8.43
2022-12-23T05:25:54.430Z,8.45
2022-12-23T05:28:22.684Z,8.45
2022-12-23T05:30:49.093Z,8.42
2022-12-23T05:33:15.803Z,8.41
2022-12-23T05:35:42.264Z,8.37
2022-12-23T05:38:08.730Z,8.35
2022-12-23T05:40:35.255Z,8.30
2022-12-23T05:43:01.995Z,8.30
2022-12-23T05:45:28.615Z,8.27
2022-12-23T05:47:55.041Z,8.27
2022-12-23T05:50:21.449Z,8.27
2022-12-23T05:52:47.855Z,8.24
2022-12-23T05:55:14.228Z,8.26
2022-12-23T05:57:40.672Z,8.27
2022-12-23T06:00:08.148Z,8.25
2022-12-23T06:02:34.633Z,8.24
2022-12-23T06:05:01.045Z,8.21
2022-12-23T06:07:27.561Z,8.18
2022-12-23T06:09:53.934Z,8.20
2022-12-23T06:12:20.313Z,8.17
2022-12-23T06:14:46.950Z,8.16
2022-12-23T06:17:13.391Z,8.16
2022-12-23T06:19:39.851Z,8.18
2022-12-23T06:22:06.246Z,8.16
2022-12-23T06:24:32.693Z,8.09
2022-12-23T06:26:59.120Z,8.09
2022-12-23T06:29:25.686Z,8.06
2022-12-23T06:31:52.281Z,8.01
2022-12-23T06:34:18.820Z,8.02
2022-12-23T06:36:45.238Z,8.03
2022-12-23T06:39:11.861Z,8.00
2022-12-23T06:41:38.314Z,8.01
2022-12-23T06:44:05.224Z,8.00
2022-12-23T06:46:31.806Z,8.00
2022-12-23T06:48:58.354Z,7.98
2022-12-23T06:51:24.807Z,8.01
2022-12-23T06:53:51.256Z,8.02
2022-12-23T06:56:18.521Z,8.03
2022-12-23T06:58:45.038Z,8.03
2022-12-23T07:01:11.716Z,8.05
2022-12-23T07:03:38.228Z,8.05
2022-12-23T07:06:05.028Z,8.07
2022-12-23T07:08:31.434Z,8.07
2022-12-23T07:11:02.161Z,8.09
2022-12-23T07:13:29.241Z,8.08
2022-12-23T07:15:55.822Z,8.09
2022-12-23T07:18:23.407Z,8.08
2022-12-23T07:20:50.866Z,8.07
2022-12-23T07:23:17.376Z,8.07
2022-12-23T07:25:43.827Z,8.07
2022-12-23T07:28:10.254Z,8.08
2022-12-23T07:30:36.737Z,8.05
2022-12-23T07:33:03.143Z,8.07
2022-12-23T07:35:29.895Z,8.06
2022-12-23T07:37:56.765Z,8.05
2022-12-23T07:40:23.997Z,8.08
2022-12-23T07:42:53.598Z,8.08
2022-12-23T07:45:20.115Z,8.08
2022-12-23T07:47:46.608Z,8.06
2022-12-23T07:50:13.635Z,8.04
2022-12-23T07:52:40.037Z,7.99
2022-12-23T07:55:06.710Z,7.98
2022-12-23T07:57:37.732Z,8.00
2022-12-23T08:00:06.093Z,8.00
2022-12-23T08:02:33.244Z,8.00
2022-12-23T08:04:59.723Z,8.02
2022-12-23T08:07:26.147Z,8.02
2022-12-23T08:09:52.576Z,8.04
2022-12-23T08:12:19.197Z,8.05
2022-12-23T08:14:45.865Z,8.08
2022-12-23T08:17:12.348Z,8.09
2022-12-23T08:19:38.865Z,8.10
2022-12-23T08:22:05.393Z,8.12
2022-12-23T08:24:31.805Z,8.14
2022-12-23T08:26:58.342Z,8.15
2022-12-23T08:29:24.778Z,8.16
2022-12-23T08:31:51.647Z,8.17
2022-12-23T08:34:19.288Z,8.18
2022-12-23T08:36:46.047Z,8.20
2022-12-23T08:39:12.707Z,8.18
2022-12-23T08:41:42.716Z,8.17
2022-12-23T08:44:09.581Z,8.17
2022-12-23T08:46:36.844Z,8.20
2022-12-23T08:49:04.651Z,8.22
2022-12-23T08:51:31.216Z,8.23
2022-12-23T08:54:00.795Z,8.23
2022-12-23T08:56:31.360Z,8.22
2022-12-23T08:58:58.375Z,8.24
2022-12-23T09:01:28.169Z,8.26
2022-12-23T09:03:54.918Z,8.27
2022-12-23T09:06:28.983Z,8.29
2022-12-23T09:08:56.501Z,8.29
2022-12-23T09:11:26.217Z,8.31
2022-12-23T09:13:52.745Z,8.33
2022-12-23T09:16:19.879Z,8.35
2022-12-23T09:18:46.316Z,8.36
2022-12-23T09:21:18.734Z,8.38
2022-12-23T09:23:45.796Z,8.38
2022-12-23T09:26:27.429Z,8.40
2022-12-23T09:28:55.392Z,8.40
2022-12-23T09:31:22.460Z,8.41
2022-12-23T09:33:52.362Z,8.42
2022-12-23T09:36:19.287Z,8.43
2022-12-23T09:38:46.760Z,8.43
2022-12-23T09:41:42.843Z,8.45
2022-12-23T09:44:38.468Z,8.47
2022-12-23T09:47:12.845Z,8.48
2022-12-23T09:49:47.264Z,8.50
2022-12-23T09:52:19.292Z,8.47
2022-12-23T09:54:50.076Z,8.47
2022-12-23T09:57:22.411Z,8.49
2022-12-23T10:00:05.680Z,8.48
2022-12-23T10:03:01.793Z,8.49
2022-12-23T10:05:46.623Z,8.49
2022-12-23T10:08:35.866Z,8.48
2022-12-23T10:11:18.675Z,8.47
2022-12-23T10:13:56.405Z,8.46
2022-12-23T10:16:27.708Z,8.46
2022-12-23T10:19:07.061Z,8.46
2022-12-23T10:22:04.958Z,8.47
2022-12-23T10:24:40.802Z,8.48
2022-12-23T10:27:34.166Z,8.50
2022-12-23T10:33:23.422Z,8.53
2022-12-23T10:36:08.120Z,8.56
2022-12-23T10:38:54.247Z,8.56
2022-12-23T10:41:20.588Z,8.57
2022-12-23T10:43:46.959Z,8.58
2022-12-23T10:46:39.781Z,8.58
2022-12-23T10:49:43.827Z,8.58
2022-12-23T10:52:25.548Z,8.60
2022-12-23T10:54:51.960Z,8.62
2022-12-23T10:57:20.172Z,8.62
2022-12-23T10:59:47.019Z,8.62
2022-12-23T11:02:13.696Z,8.62
2022-12-23T11:04:43.115Z,8.62
2022-12-23T11:10:03.931Z,8.63
2022-12-23T11:12:42.497Z,8.64
2022-12-23T11:15:32.660Z,8.66
2022-12-23T11:18:01.304Z,8.68
2022-12-23T11:20:28.092Z,8.69
2022-12-23T11:23:02.697Z,8.71
2022-12-23T11:25:40.569Z,8.72
2022-12-23T11:28:10.754Z,8.73
2022-12-23T11:30:39.585Z,8.76
2022-12-23T11:33:06.602Z,8.77
2022-12-23T11:35:36.154Z,8.76
2022-12-23T11:38:03.380Z,8.77
2022-12-23T11:40:34.116Z,8.78
2022-12-23T11:43:14.433Z,8.77
2022-12-23T11:45:41.022Z,8.78
2022-12-23T11:48:27.231Z,8.79
2022-12-23T11:51:02.132Z,8.80
2022-12-23T11:53:28.671Z,8.80
2022-12-23T11:56:05.700Z,8.81
2022-12-23T11:58:40.663Z,8.82
2022-12-23T12:01:17.728Z,8.82
2022-12-23T12:03:53.877Z,8.83
2022-12-23T12:06:22.580Z,8.83
2022-12-23T12:08:55.800Z,8.84
2022-12-23T12:11:28.144Z,8.86
2022-12-23T12:14:00.478Z,8.86
2022-12-23T12:16:59.445Z,8.86
2022-12-23T12:19:31.409Z,8.88
2022-12-23T12:22:04.093Z,8.86
2022-12-23T12:24:41.905Z,8.88
2022-12-23T12:27:11.287Z,8.88
2022-12-23T12:29:51.555Z,8.88
2022-12-23T12:32:21.015Z,8.89
2022-12-23T12:35:00.765Z,8.89
2022-12-23T12:37:41.061Z,8.87
2022-12-23T12:40:16.463Z,8.87
2022-12-23T12:42:48.823Z,8.87
2022-12-23T12:45:22.999Z,8.84
2022-12-23T12:48:47.070Z,8.84
2022-12-23T12:51:29.921Z,8.84
2022-12-23T12:54:06.305Z,8.83
2022-12-23T12:56:46.903Z,8.84
2022-12-23T12:59:27.859Z,8.81
2022-12-23T13:02:16.377Z,8.82
2022-12-23T13:05:07.863Z,8.82
2022-12-23T13:07:40.704Z,8.80
2022-12-23T13:10:41.011Z,8.81
2022-12-23T13:13:10.850Z,8.82
2022-12-23T13:16:03.288Z,8.85
2022-12-23T13:18:46.868Z,8.84
2022-12-23T13:21:24.290Z,8.86
2022-12-23T13:24:07.936Z,8.84
2022-12-23T13:26:41.414Z,8.84
2022-12-23T13:29:32.365Z,8.85
2022-12-23T13:32:20.537Z,8.83
2022-12-23T13:34:52.931Z,8.83
2022-12-23T13:37:32.636Z,8.81
2022-12-23T13:40:47.337Z,8.77
2022-12-23T13:43:18.631Z,8.75
2022-12-23T13:45:47.163Z,8.75
2022-12-23T13:48:55.207Z,8.74
2022-12-23T13:51:59.027Z,8.73
2022-12-23T13:54:43.607Z,8.69
2022-12-23T13:57:27.323Z,8.64
2022-12-23T14:00:05.957Z,8.61
2022-12-23T14:02:36.101Z,8.60
2022-12-23T14:05:05.283Z,8.59
2022-12-23T14:07:33.858Z,8.58
2022-12-23T14:10:12.638Z,8.56
2022-12-23T14:12:42.248Z,8.55
2022-12-23T14:15:38.373Z,8.55
2022-12-23T14:18:30.722Z,8.56
2022-12-23T14:21:25.616Z,8.60
2022-12-23T14:24:09.937Z,8.63
2022-12-23T14:27:11.641Z,8.66
2022-12-23T14:30:07.262Z,8.69
2022-12-23T14:32:44.055Z,8.68
2022-12-23T14:35:24.146Z,8.68
2022-12-23T14:38:22.434Z,8.66
2022-12-23T14:40:50.914Z,8.66
2022-12-23T14:43:23.611Z,8.63
2022-12-23T14:46:01.038Z,8.62
2022-12-23T14:48:33.650Z,8.62
2022-12-23T14:51:22.973Z,8.62
2022-12-23T14:53:52.432Z,8.62
2022-12-23T14:56:18.832Z,8.63
2022-12-23T14:58:51.696Z,8.66
2022-12-23T15:01:26.847Z,8.69
2022-12-23T15:03:59.269Z,8.66
2022-12-23T15:06:41.725Z,8.65
2022-12-23T15:09:16.365Z,8.62
2022-12-23T15:11:42.883Z,8.61
2022-12-23T15:14:20.880Z,8.60
2022-12-23T15:16:47.377Z,8.58
2022-12-23T15:19:22.042Z,8.57
2022-12-23T15:21:56.662Z,8.56
2022-12-23T15:24:26.773Z,8.54
2022-12-23T15:27:24.551Z,8.52
2022-12-23T15:29:45.992Z,8.51
2022-12-23T15:32:12.589Z,8.49
2022-12-23T15:34:39.206Z,8.49
2022-12-23T15:37:11.521Z,8.49
2022-12-23T15:39:41.806Z,8.48
2022-12-23T15:42:31.742Z,8.48
2022-12-23T15:44:58.525Z,8.47
2022-12-23T15:47:37.003Z,8.50
2022-12-23T15:50:04.340Z,8.49
2022-12-23T15:52:32.592Z,8.47
2022-12-23T15:55:11.659Z,8.46
2022-12-23T15:57:49.824Z,8.48
2022-12-23T16:00:19.958Z,8.51
2022-12-23T16:03:04.707Z,8.51
2022-12-23T16:05:36.594Z,8.50
2022-12-23T16:08:21.802Z,8.45
2022-12-23T16:11:10.585Z,8.46
2022-12-23T16:13:41.479Z,8.48
2022-12-23T16:16:43.094Z,8.52
2022-12-23T16:19:38.699Z,8.47
2022-12-23T16:22:17.956Z,8.46
2022-12-23T16:25:03.258Z,8.50
2022-12-23T16:27:42.518Z,8.52
2022-12-23T16:30:21.417Z,8.50
2022-12-23T16:32:56.757Z,8.48
2022-12-23T16:35:43.227Z,8.46
2022-12-23T16:38:15.783Z,8.46
2022-12-23T16:40:43.288Z,8.45
2022-12-23T16:43:10.139Z,8.47
2022-12-23T16:45:37.134Z,8.47
2022-12-23T16:48:19.786Z,8.49
2022-12-23T16:50:46.852Z,8.49
2022-12-23T16:53:14.218Z,8.49
2022-12-23T16:55:46.253Z,8.50
2022-12-23T16:58:16.794Z,8.49
2022-12-23T17:00:43.376Z,8.49
2022-12-23T17:03:15.703Z,8.51
2022-12-23T17:05:42.324Z,8.53
2022-12-23T17:08:09.269Z,8.54
2022-12-23T17:10:36.937Z,8.57
2022-12-23T17:13:03.433Z,8.59
2022-12-23T17:15:29.860Z,8.58
2022-12-23T17:17:56.500Z,8.58
2022-12-23T17:20:24.246Z,8.58
2022-12-23T17:22:58.169Z,8.60
2022-12-23T17:25:26.758Z,8.56
2022-12-23T17:27:53.661Z,8.56
2022-12-23T17:30:24.088Z,8.58
2022-12-23T17:32:56.300Z,8.58
2022-12-23T17:35:24.111Z,8.57
2022-12-23T17:37:51.045Z,8.59
2022-12-23T17:40:18.100Z,8.61
2022-12-23T17:42:45.398Z,8.64
2022-12-23T17:45:27.637Z,8.68
2022-12-23T17:47:54.668Z,8.70
2022-12-23T17:50:21.398Z,8.74
2022-12-23T17:52:48.564Z,8.76
2022-12-23T17:55:19.915Z,8.80
2022-12-23T17:57:46.478Z,8.81
2022-12-23T18:00:13.764Z,8.85
2022-12-23T18:02:40.795Z,8.89
2022-12-23T18:05:28.300Z,8.93
2022-12-23T18:07:55.898Z,8.98
2022-12-23T18:10:26.625Z,9.02
2022-12-23T18:12:58.289Z,9.07
2022-12-23T18:15:30.036Z,9.10
2022-12-23T18:17:56.412Z,9.15
2022-12-23T18:20:24.971Z,9.18
2022-12-23T18:22:54.337Z,9.22
2022-12-23T18:25:26.683Z,9.24
2022-12-23T18:27:54.151Z,9.26
2022-12-23T18:30:21.488Z,9.29
2022-12-23T18:32:48.237Z,9.30
2022-12-23T18:35:27.142Z,9.35
2022-12-23T18:37:54.648Z,9.40
2022-12-23T18:40:21.513Z,9.43
2022-12-23T18:42:47.993Z,9.45
2022-12-23T18:45:28.362Z,9.47
2022-12-23T18:47:55.394Z,9.48
2022-12-23T18:50:21.980Z,9.53
2022-12-23T18:52:48.935Z,9.55
2022-12-23T18:55:15.426Z,9.55
2022-12-23T18:57:41.951Z,9.55
2022-12-23T19:00:23.053Z,9.56
2022-12-23T19:02:53.156Z,9.55
2022-12-23T19:05:25.766Z,9.53
2022-12-23T19:07:53.537Z,9.56
2022-12-23T19:10:28.248Z,9.56
2022-12-23T19:12:55.575Z,9.57
2022-12-23T19:15:23.117Z,9.58
2022-12-23T19:17:50.358Z,9.57
2022-12-23T19:20:18.585Z,9.58
2022-12-23T19:22:45.548Z,9.59
2022-12-23T19:25:14.840Z,9.59
2022-12-23T19:27:42.478Z,9.57
2022-12-23T19:30:12.491Z,9.57
2022-12-23T19:32:38.857Z,9.57
2022-12-23T19:35:05.837Z,9.56
2022-12-23T19:37:33.443Z,9.56
2022-12-23T19:40:00.547Z,9.57
2022-12-23T19:42:27.015Z,9.56
2022-12-23T19:44:53.444Z,9.56
2022-12-23T19:47:19.867Z,9.56
2022-12-23T19:49:46.291Z,9.57
2022-12-23T19:52:12.821Z,9.56
2022-12-23T19:54:39.206Z,9.56
2022-12-23T19:57:05.698Z,9.59
2022-12-23T19:59:32.102Z,9.61
2022-12-23T20:01:58.623Z,9.61
2022-12-23T20:04:25.069Z,9.62
2022-12-23T20:06:52.484Z,9.62
2022-12-23T20:09:19.096Z,9.65
2022-12-23T20:11:47.617Z,9.64
2022-12-23T20:14:17.020Z,9.65
2022-12-23T20:16:44.068Z,9.65
2022-12-23T20:19:10.778Z,9.66
2022-12-23T20:21:37.505Z,9.68
2022-12-23T20:24:05.778Z,9.71
2022-12-23T20:26:32.319Z,9.72
2022-12-23T20:28:58.934Z,9.73
2022-12-23T20:31:31.253Z,9.75
2022-12-23T20:33:58.447Z,9.74
2022-12-23T20:36:27.264Z,9.74
2022-12-23T20:38:54.255Z,9.74
2022-12-23T20:41:23.426Z,9.74
2022-12-23T20:44:23.302Z,9.74
2022-12-23T20:46:38.107Z,9.77
2022-12-23T20:49:04.636Z,9.76
2022-12-23T20:51:31.030Z,9.79
2022-12-23T20:54:00.961Z,9.78
2022-12-23T20:56:29.183Z,9.78
2022-12-23T20:59:00.357Z,9.77
2022-12-23T21:01:35.757Z,9.79
2022-12-23T21:04:08.375Z,9.79
2022-12-23T21:06:36.011Z,9.78
2022-12-23T21:09:05.775Z,9.78
2022-12-23T21:11:34.897Z,9.76
2022-12-23T21:14:06.871Z,9.79
2022-12-23T21:16:36.528Z,9.79
2022-12-23T21:19:04.027Z,9.79
2022-12-23T21:21:31.764Z,9.77
2022-12-23T21:24:01.366Z,9.76
2022-12-23T21:26:30.324Z,9.76
2022-12-23T21:29:01.867Z,9.76
2022-12-23T21:31:30.965Z,9.76
2022-12-23T21:33:58.231Z,9.75
2022-12-23T21:36:28.088Z,9.75
2022-12-23T21:38:55.096Z,9.72
2022-12-23T21:41:24.520Z,9.72
2022-12-23T21:43:51.323Z,9.73
2022-12-23T21:46:20.206Z,9.72
2022-12-23T21:48:47.977Z,9.69
2022-12-23T21:51:20.473Z,9.70
2022-12-23T21:53:49.533Z,9.74
2022-12-23T21:56:18.792Z,9.74
2022-12-23T21:58:45.794Z,9.71
2022-12-23T22:01:16.043Z,9.74
2022-12-23T22:03:43.691Z,9.74
2022-12-23T22:06:12.771Z,9.71
2022-12-23T22:08:39.845Z,9.71
2022-12-23T22:11:18.563Z,9.69
2022-12-23T22:13:45.514Z,9.67
2022-12-23T22:16:15.152Z,9.64
2022-12-23T22:18:42.211Z,9.62
2022-12-23T22:21:14.674Z,9.59
2022-12-23T22:23:41.984Z,9.55
2022-12-23T22:26:10.499Z,9.53
2022-12-23T22:28:39.031Z,9.51
2022-12-23T22:31:19.453Z,9.51
2022-12-23T22:33:46.288Z,9.48
2022-12-23T22:36:14.384Z,9.48
2022-12-23T22:38:41.713Z,9.48
2022-12-23T22:41:08.729Z,9.45
2022-12-23T22:43:35.230Z,9.46
2022-12-23T22:46:02.058Z,9.43
2022-12-23T22:48:29.994Z,9.43
2022-12-23T22:51:05.189Z,9.40
2022-12-23T22:53:32.184Z,9.39
2022-12-23T22:56:00.165Z,9.37
2022-12-23T22:58:28.528Z,9.33
2022-12-23T23:00:55.433Z,9.37
2022-12-23T23:03:22.208Z,9.37
2022-12-23T23:05:59.459Z,9.35
2022-12-23T23:08:26.206Z,9.36
2022-12-23T23:10:53.557Z,9.39
2022-12-23T23:13:20.014Z,9.40
2022-12-23T23:15:49.961Z,9.38
2022-12-23T23:18:16.493Z,9.37
2022-12-23T23:20:42.957Z,9.38
2022-12-23T23:23:09.404Z,9.35
2022-12-23T23:25:35.857Z,9.36
2022-12-23T23:28:02.471Z,9.39
2022-12-23T23:30:29.021Z,9.36
2022-12-23T23:32:55.513Z,9.36
2022-12-23T23:35:21.973Z,9.35
2022-12-23T23:37:48.441Z,9.32
2022-12-23T23:40:14.991Z,9.32
2022-12-23T23:42:41.445Z,9.31
2022-12-23T23:45:08.245Z,9.32
2022-12-23T23:47:34.944Z,9.33
2022-12-23T23:50:01.753Z,9.34
2022-12-23T23:52:28.942Z,9.35
2022-12-23T23:54:55.511Z,9.36
2022-12-23T23:57:22.560Z,9.39
2022-12-23T23:59:48.998Z,9.39
